KFNB

Details ICAO KFNB
Name BRENNER FLD
Region United States
Timezone America/Chicago (UTC-6.0)
Plans Departing 0
Arriving 2
Stats Elevation 984 ft / 300 m (AMSL)
Location 40.078720° -95.592034°
Runways 1
Magnetic Variation 2.347° E
Sunrise 2017-12-15 13:38:55 UTC / 2017-12-15 07:38:55 Local
Sunset 2017-12-15 22:59:10 UTC / 2017-12-15 16:59:10 Local
Advertisement - Login to hide

Runways

ID Width Length Bearing (true) Bearing (mag) Surface Threshold Offset Overrun Length
14 59 ft / 18 m 4,002 ft / 1,220 m 148.90° 146.55° Concrete 0 ft / 0 m 0 ft / 0 m
32 59 ft / 18 m 4,002 ft / 1,220 m 328.90° 326.55° Concrete 0 ft / 0 m 0 ft / 0 m

Map

Weather


0- 5 10 15 20 25 30 35+ Temperature / ° C

Clouds and Precipitation
Forecast for 2017-12-15 12:00 UTC. Updated an hour ago

Ground ~20,000 ft ~40,000 ft Winds

METAR

KFNB 150953Z AUTO 32009KT 10SM OVC050 02/M03 A3014 RMK AO2 SLP214 T00171033

TAF

Not found

Frequencies

Unicom 122.80 MHz CTAF/UNICOM
Warning: Do not use this data for real-world aviation or navigation. No guarantee of current accuracy is given.